Time;durP1;ratioP1;P1;durP2;ratioP2;P2;SDS_P1;SDS_P2;PMS_P1;PMS_P2;Temp;Humidity;BMP_temperature;BMP_pressure;BME280_temperature;BME280_humidity;BME280_pressure;Samples;Min_cycle;Max_cycle;Signal;HPM_P1;HPM_P2
2023/03/11 00:00:12;;;;;;;1.20;1.15;;;5.40;57.70;;;;;;5062742;28;20027;-63
2023/03/11 00:02:39;;;;;;;1.15;1.10;;;5.40;57.80;;;;;;5061742;28;20093;-64
2023/03/11 00:05:07;;;;;;;1.55;1.38;;;5.40;57.80;;;;;;5060981;28;20030;-64
2023/03/11 00:07:32;;;;;;;1.38;1.27;;;5.40;57.80;;;;;;5062617;28;20028;-63
2023/03/11 00:09:58;;;;;;;1.17;1.08;;;5.40;57.90;;;;;;5066849;28;20017;-63
2023/03/11 00:12:24;;;;;;;1.58;1.48;;;5.40;57.60;;;;;;5054757;28;20024;-64
2023/03/11 00:14:49;;;;;;;1.50;1.40;;;5.40;58.00;;;;;;5058891;28;20025;-63
2023/03/11 00:17:15;;;;;;;1.30;1.20;;;5.40;58.00;;;;;;5061282;28;20410;-63
2023/03/11 00:19:41;;;;;;;1.55;1.45;;;5.30;58.00;;;;;;5062303;28;20040;-62
2023/03/11 00:22:06;;;;;;;1.63;1.48;;;5.30;57.90;;;;;;5056833;28;20445;-63
2023/03/11 00:24:33;;;;;;;1.65;1.52;;;5.30;58.00;;;;;;5068249;28;20029;-65
2023/03/11 00:26:58;;;;;;;1.40;1.30;;;5.30;58.00;;;;;;5062972;28;20028;-63
2023/03/11 00:29:24;;;;;;;1.33;1.23;;;5.30;58.10;;;;;;5065434;28;20092;-63
2023/03/11 00:31:50;;;;;;;1.60;1.40;;;5.30;58.10;;;;;;5061952;28;20092;-64
2023/03/11 00:34:16;;;;;;;1.50;1.35;;;5.30;58.20;;;;;;5070702;28;20037;-63
2023/03/11 00:36:41;;;;;;;1.58;1.40;;;5.20;58.10;;;;;;5061721;28;20614;-63
2023/03/11 00:39:08;;;;;;;2.47;1.42;;;5.20;58.10;;;;;;5063733;28;20483;-63
2023/03/11 00:41:34;;;;;;;1.50;1.40;;;5.20;58.80;;;;;;5070945;28;20016;-64
2023/03/11 00:44:00;;;;;;;2.47;1.50;;;5.20;58.10;;;;;;5071707;28;20033;-64
2023/03/11 00:46:27;;;;;;;1.60;1.48;;;5.20;58.10;;;;;;5066887;28;20032;-64
2023/03/11 00:48:53;;;;;;;1.65;1.35;;;5.10;58.00;;;;;;5069214;28;20383;-63
2023/03/11 00:51:18;;;;;;;2.28;1.40;;;5.10;57.60;;;;;;5063020;28;20036;-64
2023/03/11 00:53:45;;;;;;;1.80;1.50;;;5.10;57.40;;;;;;5062096;28;20024;-64
2023/03/11 00:56:12;;;;;;;1.48;1.38;;;5.10;57.40;;;;;;5063370;28;20045;-63
2023/03/11 00:58:39;;;;;;;1.65;1.38;;;5.00;57.50;;;;;;5066774;28;20120;-63
2023/03/11 01:01:23;;;;;;;1.55;1.40;;;5.00;57.70;;;;;;5068880;28;20468;-63
2023/03/11 01:03:48;;;;;;;1.30;1.20;;;5.00;57.60;;;;;;5059035;28;20029;-62
2023/03/11 01:06:14;;;;;;;1.40;1.20;;;4.90;57.30;;;;;;5065817;28;20031;-63
2023/03/11 01:08:40;;;;;;;1.35;1.25;;;4.90;57.60;;;;;;5058273;28;20096;-62
2023/03/11 01:11:07;;;;;;;2.53;1.40;;;4.90;57.50;;;;;;5074417;28;20036;-62
2023/03/11 01:13:34;;;;;;;1.77;1.30;;;4.80;57.50;;;;;;5060958;28;20112;-62
2023/03/11 01:15:59;;;;;;;2.13;1.50;;;4.80;57.50;;;;;;5070873;28;20025;-62
2023/03/11 01:18:26;;;;;;;1.40;1.30;;;4.80;57.80;;;;;;5065193;28;20039;-61
2023/03/11 01:20:53;;;;;;;1.38;1.27;;;4.80;57.60;;;;;;5073472;28;20028;-63
2023/03/11 01:23:19;;;;;;;1.42;1.30;;;4.80;57.80;;;;;;5056206;28;20576;-63
2023/03/11 01:25:45;;;;;;;1.20;1.10;;;4.80;57.80;;;;;;5057400;28;20079;-62
2023/03/11 01:28:11;;;;;;;1.25;1.15;;;4.80;57.80;;;;;;5058208;28;20024;-63
2023/03/11 01:30:39;;;;;;;1.08;0.98;;;4.80;57.50;;;;;;5070272;28;20077;-62
2023/03/11 01:33:06;;;;;;;1.20;1.10;;;4.80;57.90;;;;;;5061909;28;20056;-61
2023/03/11 01:35:34;;;;;;;0.93;0.90;;;4.80;57.90;;;;;;5069970;28;20024;-62
2023/03/11 01:38:00;;;;;;;1.38;1.27;;;4.80;57.90;;;;;;5056601;28;20034;-62
2023/03/11 01:40:30;;;;;;;2.25;1.10;;;4.80;57.90;;;;;;5016745;28;20028;-61
2023/03/11 01:42:57;;;;;;;1.30;1.20;;;4.80;58.00;;;;;;5060230;28;20029;-62
2023/03/11 01:46:03;;;;;;;1.20;1.10;;;4.80;58.10;;;;;;5054948;28;20025;-62
2023/03/11 01:48:29;;;;;;;1.38;1.20;;;4.80;58.10;;;;;;5060807;28;20032;-61
2023/03/11 01:50:55;;;;;;;1.35;1.25;;;4.80;58.10;;;;;;5062338;28;20025;-63
2023/03/11 01:53:22;;;;;;;1.73;1.30;;;4.80;57.80;;;;;;5075553;28;20391;-61
2023/03/11 01:55:48;;;;;;;1.83;1.25;;;4.70;58.10;;;;;;5060463;28;20057;-61
2023/03/11 01:58:19;;;;;;;1.48;1.30;;;4.70;58.20;;;;;;5055434;28;20037;-63
2023/03/11 02:00:45;;;;;;;1.58;1.48;;;4.70;58.20;;;;;;5060033;28;20044;-62
2023/03/11 02:03:27;;;;;;;2.03;1.38;;;4.70;58.30;;;;;;5067735;28;20056;-62
2023/03/11 02:05:55;;;;;;;3.90;1.20;;;4.60;58.30;;;;;;5059239;28;20021;-61
2023/03/11 02:08:22;;;;;;;2.05;1.10;;;4.70;58.50;;;;;;5060227;28;20024;-63
2023/03/11 02:10:51;;;;;;;1.70;1.17;;;4.60;58.50;;;;;;5062320;28;20036;-61
2023/03/11 02:13:17;;;;;;;1.20;1.10;;;4.70;58.60;;;;;;5070471;28;20035;-61
2023/03/11 02:15:43;;;;;;;1.42;1.30;;;4.60;58.70;;;;;;5056334;28;20112;-63
2023/03/11 02:18:19;;;;;;;3.92;1.55;;;4.60;58.70;;;;;;5066850;28;20063;-63
2023/03/11 02:21:27;;;;;;;2.88;1.20;;;4.60;58.20;;;;;;5061452;28;20021;-62
2023/03/11 02:24:10;;;;;;;4.72;1.35;;;4.60;58.40;;;;;;5055649;28;20016;-62
2023/03/11 02:26:50;;;;;;;1.58;1.20;;;4.60;58.10;;;;;;5054564;28;20049;-64
2023/03/11 02:29:17;;;;;;;2.05;1.48;;;4.60;58.10;;;;;;5058998;28;20056;-63
2023/03/11 02:31:44;;;;;;;1.48;1.13;;;4.60;58.20;;;;;;5072447;28;20047;-63
2023/03/11 02:34:17;;;;;;;1.88;1.30;;;4.60;58.20;;;;;;5058414;28;20041;-64
2023/03/11 02:36:43;;;;;;;1.50;1.40;;;4.60;58.20;;;;;;5061052;28;20040;-62
2023/03/11 02:39:09;;;;;;;1.38;1.23;;;4.50;58.20;;;;;;5059583;28;20045;-64
2023/03/11 02:41:39;;;;;;;1.25;1.15;;;4.50;58.30;;;;;;5057607;28;20055;-62
2023/03/11 02:44:09;;;;;;;1.20;1.10;;;4.50;58.20;;;;;;5059324;28;20060;-61
2023/03/11 02:46:37;;;;;;;1.40;1.30;;;4.50;58.20;;;;;;5067303;28;20027;-62
2023/03/11 02:49:04;;;;;;;1.63;1.10;;;4.60;58.40;;;;;;5061247;28;20032;-62
2023/03/11 02:51:30;;;;;;;1.45;1.20;;;4.50;58.50;;;;;;5067750;28;20064;-63
2023/03/11 02:54:01;;;;;;;1.50;1.15;;;4.50;58.40;;;;;;5066860;28;20026;-62
2023/03/11 02:56:27;;;;;;;3.97;1.92;;;4.50;58.30;;;;;;5062968;28;20025;-63
2023/03/11 02:58:53;;;;;;;1.75;1.30;;;4.50;58.30;;;;;;5066482;28;20040;-64
2023/03/11 03:01:19;;;;;;;1.88;1.25;;;4.60;58.40;;;;;;5066387;28;20036;-62
2023/03/11 03:03:44;;;;;;;1.52;1.17;;;4.50;58.30;;;;;;5062457;28;20029;-63
2023/03/11 03:06:10;;;;;;;1.25;1.15;;;4.50;58.20;;;;;;5050724;28;20696;-63
2023/03/11 03:08:36;;;;;;;2.33;1.10;;;4.50;58.20;;;;;;5058119;28;20035;-63
2023/03/11 03:11:02;;;;;;;3.55;1.30;;;4.50;58.30;;;;;;5062916;28;20024;-63
2023/03/11 03:13:28;;;;;;;1.42;1.00;;;4.50;58.50;;;;;;5058198;28;20028;-61
2023/03/11 03:15:54;;;;;;;3.38;1.15;;;4.50;58.40;;;;;;5062321;28;20032;-63
2023/03/11 03:18:20;;;;;;;1.63;1.23;;;4.50;58.30;;;;;;5066646;28;20032;-62
2023/03/11 03:20:46;;;;;;;1.65;1.25;;;4.50;58.10;;;;;;5064721;28;20032;-62
2023/03/11 03:23:11;;;;;;;1.88;1.00;;;4.50;57.90;;;;;;5063355;28;20029;-62
2023/03/11 03:25:40;;;;;;;1.83;1.23;;;4.50;57.50;;;;;;5065239;28;20033;-64
2023/03/11 03:28:06;;;;;;;3.00;1.17;;;4.40;56.80;;;;;;5057782;28;20021;-62
2023/03/11 03:30:31;;;;;;;3.20;1.30;;;4.40;57.30;;;;;;5065539;28;20480;-64
2023/03/11 03:32:57;;;;;;;2.22;1.20;;;4.40;57.30;;;;;;5061852;28;20064;-63
2023/03/11 03:35:23;;;;;;;2.20;1.10;;;4.30;57.10;;;;;;5057280;28;20463;-63
2023/03/11 03:37:49;;;;;;;2.60;1.02;;;4.30;57.40;;;;;;5070310;28;20033;-63
2023/03/11 03:40:14;;;;;;;2.08;1.15;;;4.30;57.30;;;;;;4963170;28;20018;-63
2023/03/11 03:42:40;;;;;;;2.83;1.13;;;4.30;57.10;;;;;;5057067;28;20030;-62
2023/03/11 03:45:07;;;;;;;3.35;1.10;;;4.20;57.00;;;;;;5060045;28;20049;-62
2023/03/11 03:47:34;;;;;;;2.03;1.10;;;4.20;57.00;;;;;;5058751;28;20053;-63
2023/03/11 03:49:59;;;;;;;2.97;1.00;;;4.20;57.30;;;;;;5061026;28;20021;-63
2023/03/11 03:52:25;;;;;;;1.00;0.90;;;4.20;57.10;;;;;;5058577;28;20122;-63
2023/03/11 03:54:51;;;;;;;4.68;1.00;;;4.20;57.00;;;;;;5058902;28;20367;-62
2023/03/11 03:57:17;;;;;;;4.78;1.10;;;4.20;57.40;;;;;;5056432;28;20040;-62
2023/03/11 03:59:42;;;;;;;1.35;0.90;;;4.30;57.40;;;;;;5059754;28;20426;-62
2023/03/11 04:02:08;;;;;;;3.17;1.38;;;4.10;57.40;;;;;;5066531;28;20013;-63
2023/03/11 04:04:33;;;;;;;2.15;1.23;;;4.10;57.30;;;;;;5052636;28;20704;-62
2023/03/11 04:06:59;;;;;;;3.75;1.20;;;4.10;57.50;;;;;;5051840;28;20527;-63
2023/03/11 04:09:25;;;;;;;2.28;1.23;;;4.10;57.50;;;;;;5061846;28;20447;-63
2023/03/11 04:11:50;;;;;;;1.83;0.98;;;4.10;57.50;;;;;;5071845;28;20486;-62
2023/03/11 04:14:16;;;;;;;1.20;1.10;;;4.10;57.20;;;;;;5060170;28;20029;-62
2023/03/11 04:16:42;;;;;;;1.83;0.95;;;4.10;57.00;;;;;;5064404;28;20063;-64
2023/03/11 04:19:08;;;;;;;3.20;1.15;;;4.00;56.90;;;;;;5065425;28;20033;-63
2023/03/11 04:21:34;;;;;;;1.38;1.13;;;4.00;57.10;;;;;;5055651;28;20025;-61
2023/03/11 04:24:00;;;;;;;3.88;1.25;;;4.00;57.10;;;;;;5057972;28;20036;-63
2023/03/11 04:26:27;;;;;;;1.20;1.00;;;3.90;57.00;;;;;;5066466;28;20028;-63
2023/03/11 04:28:53;;;;;;;4.38;1.10;;;3.90;57.10;;;;;;5075589;28;20024;-62
2023/03/11 04:31:18;;;;;;;1.73;1.00;;;3.90;57.20;;;;;;5063264;28;20109;-64
2023/03/11 04:33:44;;;;;;;1.77;1.23;;;3.90;57.30;;;;;;5069856;28;20052;-64
2023/03/11 04:36:11;;;;;;;1.30;1.20;;;3.90;57.40;;;;;;5067072;28;20051;-64
2023/03/11 04:38:37;;;;;;;1.52;1.10;;;3.90;57.60;;;;;;5069289;28;20431;-62
2023/03/11 04:41:04;;;;;;;2.20;1.50;;;3.90;57.80;;;;;;5065540;28;20039;-62
2023/03/11 04:43:30;;;;;;;2.22;1.27;;;4.00;57.80;;;;;;5058674;28;20033;-62
2023/03/11 04:45:56;;;;;;;2.83;1.20;;;4.00;57.80;;;;;;5062825;28;20067;-63
2023/03/11 04:48:21;;;;;;;2.85;1.20;;;4.00;57.90;;;;;;5061249;28;20020;-62
2023/03/11 04:50:47;;;;;;;1.95;1.25;;;4.00;57.80;;;;;;5058222;28;20025;-62
2023/03/11 04:53:13;;;;;;;3.33;1.20;;;3.90;57.80;;;;;;5065252;28;20060;-64
2023/03/11 04:55:38;;;;;;;3.97;1.40;;;4.10;57.90;;;;;;5062852;28;20029;-63
2023/03/11 04:58:04;;;;;;;2.00;1.25;;;3.90;58.00;;;;;;5057085;28;20044;-62
2023/03/11 05:00:30;;;;;;;4.75;1.20;;;3.80;57.90;;;;;;5054795;28;20036;-64
2023/03/11 05:02:55;;;;;;;1.85;1.15;;;3.80;58.10;;;;;;5064771;28;20080;-64
2023/03/11 05:05:21;;;;;;;2.42;1.17;;;3.80;58.20;;;;;;5064215;28;20056;-63
2023/03/11 05:07:47;;;;;;;1.65;1.30;;;3.90;58.30;;;;;;5061293;28;20029;-63
2023/03/11 05:10:14;;;;;;;4.45;1.75;;;3.80;58.40;;;;;;5072198;28;20029;-63
2023/03/11 05:12:40;;;;;;;1.25;1.10;;;3.80;58.50;;;;;;5046911;28;20032;-62
2023/03/11 05:15:06;;;;;;;6.60;1.98;;;3.80;58.30;;;;;;5073241;28;20024;-61
2023/03/11 05:17:32;;;;;;;1.52;1.02;;;3.80;58.00;;;;;;5068770;28;20033;-61
2023/03/11 05:19:57;;;;;;;4.47;1.48;;;3.80;57.80;;;;;;5070212;28;20056;-63
2023/03/11 05:22:23;;;;;;;2.58;1.23;;;3.80;57.70;;;;;;5082461;28;20032;-62
2023/03/11 05:24:49;;;;;;;1.58;1.15;;;3.90;58.50;;;;;;5078170;28;20028;-62
2023/03/11 05:27:16;;;;;;;2.10;1.05;;;3.70;57.80;;;;;;5054487;28;20060;-63
2023/03/11 05:29:43;;;;;;;1.42;0.90;;;3.60;57.70;;;;;;5061140;28;20028;-64
2023/03/11 05:32:10;;;;;;;3.17;1.10;;;3.60;57.30;;;;;;5059372;28;20056;-63
2023/03/11 05:34:36;;;;;;;2.83;0.93;;;3.60;57.60;;;;;;5061021;28;20546;-63
2023/03/11 05:37:02;;;;;;;2.40;1.23;;;3.60;57.70;;;;;;5058353;28;20025;-63
2023/03/11 05:39:33;;;;;;;2.17;1.00;;;3.60;57.80;;;;;;5055097;28;20028;-63
2023/03/11 05:41:58;;;;;;;4.10;1.35;;;3.50;57.70;;;;;;5060622;28;20084;-63
2023/03/11 05:44:24;;;;;;;4.43;1.10;;;3.50;57.60;;;;;;5067251;28;20025;-63
2023/03/11 05:46:50;;;;;;;6.13;1.70;;;3.50;57.60;;;;;;5064469;28;20561;-63
2023/03/11 05:49:15;;;;;;;3.10;1.55;;;3.50;57.80;;;;;;5066488;28;20032;-64
2023/03/11 05:51:41;;;;;;;2.38;1.13;;;3.50;57.80;;;;;;5064950;28;20056;-63
2023/03/11 05:54:13;;;;;;;4.57;1.10;;;3.50;57.90;;;;;;5061923;28;20017;-63
2023/03/11 05:56:40;;;;;;;1.05;0.88;;;3.50;57.80;;;;;;5066207;28;20039;-64
2023/03/11 05:59:07;;;;;;;4.55;1.52;;;3.80;58.00;;;;;;5056738;28;20037;-63
2023/03/11 06:01:33;;;;;;;2.92;1.33;;;3.50;58.00;;;;;;5066591;28;20016;-64
2023/03/11 06:03:59;;;;;;;3.97;0.98;;;3.40;57.90;;;;;;5065433;28;20022;-63
2023/03/11 06:06:25;;;;;;;3.65;1.20;;;3.40;57.90;;;;;;5062443;28;20029;-62
2023/03/11 06:08:50;;;;;;;4.65;1.20;;;3.40;57.90;;;;;;5065926;28;20020;-64
2023/03/11 06:11:17;;;;;;;5.82;1.30;;;3.50;58.10;;;;;;5057152;28;20025;-62
2023/03/11 06:13:42;;;;;;;3.70;1.80;;;3.50;58.10;;;;;;5068955;28;20033;-64
2023/03/11 06:16:08;;;;;;;3.15;1.55;;;3.40;58.10;;;;;;5057393;28;20032;-64
2023/03/11 06:18:34;;;;;;;10.13;1.08;;;3.40;58.00;;;;;;5056976;28;20086;-63
2023/03/11 06:21:01;;;;;;;4.28;1.42;;;3.40;58.00;;;;;;5057421;28;20033;-64
2023/03/11 06:23:28;;;;;;;1.90;1.10;;;3.40;58.00;;;;;;5070927;28;20046;-63
2023/03/11 06:26:04;;;;;;;3.13;1.10;;;3.60;58.00;;;;;;5060789;28;20054;-62
2023/03/11 06:28:30;;;;;;;2.03;1.00;;;3.40;58.10;;;;;;5063314;28;20385;-62
2023/03/11 06:31:10;;;;;;;10.02;1.35;;;3.40;58.20;;;;;;5063456;28;20072;-64
2023/03/11 06:33:36;;;;;;;3.58;1.00;;;3.50;58.10;;;;;;5059872;28;20117;-62
2023/03/11 06:36:03;;;;;;;4.68;1.45;;;3.40;58.00;;;;;;5058895;28;20041;-62
2023/03/11 06:38:30;;;;;;;5.43;1.30;;;3.40;58.10;;;;;;5053291;28;20033;-62
2023/03/11 06:41:00;;;;;;;5.75;1.02;;;3.40;58.30;;;;;;5063790;28;20382;-64
2023/03/11 06:43:26;;;;;;;6.80;1.23;;;3.40;58.40;;;;;;5062100;28;20029;-62
2023/03/11 06:45:51;;;;;;;3.58;1.25;;;3.70;58.60;;;;;;5060582;28;20088;-62
2023/03/11 06:48:17;;;;;;;3.05;1.20;;;3.50;58.50;;;;;;5055334;28;20061;-62
2023/03/11 06:50:43;;;;;;;2.60;1.02;;;3.60;58.60;;;;;;5062456;28;20060;-62
2023/03/11 06:53:08;;;;;;;3.95;1.30;;;3.60;58.40;;;;;;5065853;28;20036;-62
2023/03/11 06:55:34;;;;;;;3.80;1.10;;;3.80;58.40;;;;;;5059601;28;20024;-63
2023/03/11 06:58:00;;;;;;;7.28;1.58;;;3.70;58.20;;;;;;5062160;28;20037;-62
2023/03/11 07:00:26;;;;;;;9.15;1.40;;;3.80;58.20;;;;;;5056403;28;20537;-62
2023/03/11 07:02:52;;;;;;;3.50;1.17;;;3.80;58.10;;;;;;5065427;28;20046;-62
2023/03/11 07:05:18;;;;;;;5.57;1.30;;;3.80;58.20;;;;;;5055681;28;20052;-62
2023/03/11 07:07:43;;;;;;;3.58;1.20;;;3.90;58.40;;;;;;5061070;28;20464;-63
2023/03/11 07:10:10;;;;;;;7.47;1.23;;;3.90;58.20;;;;;;5058494;28;20091;-62
2023/03/11 07:12:35;;;;;;;5.57;1.25;;;4.00;58.20;;;;;;5073829;28;20430;-62
2023/03/11 07:15:01;;;;;;;4.65;1.30;;;4.00;58.20;;;;;;5062747;28;20025;-63
2023/03/11 07:17:27;;;;;;;3.50;1.20;;;4.10;58.30;;;;;;5069293;28;20057;-64
2023/03/11 07:19:53;;;;;;;7.65;1.60;;;4.20;58.00;;;;;;5059536;28;20081;-63
2023/03/11 07:22:19;;;;;;;6.28;1.30;;;4.30;57.90;;;;;;5045549;28;20112;-62
2023/03/11 07:24:48;;;;;;;5.53;1.50;;;4.30;57.40;;;;;;5097172;28;20029;-64
2023/03/11 07:27:14;;;;;;;4.53;1.50;;;4.30;57.20;;;;;;5058903;28;20035;-62
2023/03/11 07:29:40;;;;;;;3.40;1.50;;;4.30;56.90;;;;;;5055959;28;20025;-62
2023/03/11 07:32:07;;;;;;;5.43;1.83;;;4.20;57.00;;;;;;5061639;28;20028;-63
2023/03/11 07:34:33;;;;;;;2.88;1.35;;;4.20;57.00;;;;;;5065721;28;20423;-63
2023/03/11 07:36:59;;;;;;;2.00;1.20;;;4.10;57.10;;;;;;5066466;28;20022;-62
2023/03/11 07:39:24;;;;;;;6.82;1.67;;;4.10;57.10;;;;;;5059372;28;20029;-63
2023/03/11 07:41:50;;;;;;;6.10;1.73;;;4.10;57.30;;;;;;5055502;28;20412;-63
2023/03/11 07:44:16;;;;;;;9.25;1.40;;;4.00;57.40;;;;;;5061592;28;20060;-64
2023/03/11 07:46:42;;;;;;;2.65;1.30;;;4.00;57.40;;;;;;5053294;28;20372;-62
2023/03/11 07:49:08;;;;;;;5.45;1.65;;;4.00;57.20;;;;;;5059525;28;20028;-64
2023/03/11 07:51:35;;;;;;;4.18;1.35;;;4.00;57.30;;;;;;5063160;28;20041;-62
2023/03/11 07:54:02;;;;;;;6.07;1.77;;;4.00;57.30;;;;;;5057989;28;20032;-63
2023/03/11 07:56:31;;;;;;;4.90;1.67;;;4.00;57.30;;;;;;5050973;28;20023;-62
2023/03/11 07:58:58;;;;;;;3.38;1.35;;;3.90;57.20;;;;;;5055872;28;20043;-63
2023/03/11 08:01:26;;;;;;;2.17;1.13;;;3.90;57.40;;;;;;5065391;28;20025;-64
2023/03/11 08:03:57;;;;;;;6.32;1.27;;;3.90;57.50;;;;;;5056429;28;20033;-64
2023/03/11 08:06:30;;;;;;;6.38;1.92;;;3.90;57.10;;;;;;5061016;28;20021;-64
2023/03/11 08:08:57;;;;;;;3.88;0.98;;;3.90;57.00;;;;;;5064991;28;20025;-64
2023/03/11 08:11:23;;;;;;;3.47;1.30;;;3.90;57.20;;;;;;5063092;28;20030;-63
2023/03/11 08:13:50;;;;;;;3.88;1.35;;;3.90;57.60;;;;;;5064375;28;20103;-63
2023/03/11 08:16:18;;;;;;;7.00;1.30;;;4.00;57.80;;;;;;5071893;28;21072;-62
2023/03/11 08:18:45;;;;;;;2.63;1.20;;;4.10;58.10;;;;;;5065228;28;20118;-62
2023/03/11 08:21:16;;;;;;;5.10;1.40;;;4.30;58.40;;;;;;5070047;28;20080;-63
2023/03/11 08:23:44;;;;;;;2.08;1.02;;;4.40;57.80;;;;;;5062308;28;20050;-63
2023/03/11 08:26:13;;;;;;;5.20;1.85;;;4.60;57.30;;;;;;5073223;28;20025;-62
2023/03/11 08:28:40;;;;;;;6.13;1.45;;;4.70;57.50;;;;;;5067256;28;20025;-64
2023/03/11 08:31:22;;;;;;;3.00;1.40;;;4.80;56.90;;;;;;5060279;28;20021;-62
2023/03/11 08:33:50;;;;;;;4.53;1.10;;;4.90;56.80;;;;;;5068010;28;20487;-64
2023/03/11 08:36:16;;;;;;;9.05;1.58;;;4.90;57.10;;;;;;5049911;28;20029;-62
2023/03/11 08:38:42;;;;;;;9.68;1.35;;;5.10;56.90;;;;;;5060030;28;20037;-62
2023/03/11 08:41:08;;;;;;;5.35;1.50;;;5.40;56.80;;;;;;5046423;28;20127;-62
2023/03/11 08:43:34;;;;;;;3.65;1.38;;;5.20;56.40;;;;;;5065364;28;20017;-64
2023/03/11 08:46:05;;;;;;;5.38;1.60;;;5.30;56.30;;;;;;5060935;28;20441;-63
2023/03/11 08:48:31;;;;;;;3.45;1.25;;;5.40;56.10;;;;;;5071211;28;20024;-63
2023/03/11 08:50:57;;;;;;;6.53;2.13;;;5.50;55.90;;;;;;5067129;28;20033;-62
2023/03/11 08:53:23;;;;;;;4.00;1.10;;;5.60;55.90;;;;;;5067446;28;20024;-62
2023/03/11 08:55:50;;;;;;;5.88;1.20;;;5.60;55.90;;;;;;5061272;28;20029;-62
2023/03/11 08:58:16;;;;;;;2.97;1.08;;;5.70;55.30;;;;;;5053137;28;20034;-63
2023/03/11 09:00:41;;;;;;;2.67;1.42;;;5.70;55.20;;;;;;5067597;28;20035;-63
2023/03/11 09:03:07;;;;;;;4.53;1.67;;;5.60;54.70;;;;;;5063372;28;20028;-63
2023/03/11 09:05:33;;;;;;;4.75;1.30;;;5.60;54.90;;;;;;5060579;28;20147;-63
2023/03/11 09:07:58;;;;;;;4.07;1.25;;;5.60;55.60;;;;;;5070867;28;20039;-65
2023/03/11 09:10:24;;;;;;;2.97;1.10;;;5.70;55.70;;;;;;5060848;28;20056;-63
2023/03/11 09:12:50;;;;;;;2.58;1.05;;;5.80;55.20;;;;;;5063232;28;20040;-62
2023/03/11 09:15:15;;;;;;;1.58;1.02;;;5.80;54.00;;;;;;5069201;28;20033;-62
2023/03/11 09:17:41;;;;;;;3.55;0.98;;;5.80;54.10;;;;;;5061681;28;20101;-64
2023/03/11 09:20:07;;;;;;;3.60;1.25;;;5.80;53.90;;;;;;5069121;28;20103;-62
2023/03/11 09:22:33;;;;;;;2.53;1.00;;;5.80;54.20;;;;;;5063934;28;20060;-65
2023/03/11 09:24:58;;;;;;;4.75;0.95;;;5.80;54.60;;;;;;5068666;28;20033;-63
2023/03/11 09:27:24;;;;;;;2.75;1.20;;;6.00;55.50;;;;;;5061966;28;20037;-63
2023/03/11 09:29:50;;;;;;;4.78;1.05;;;6.10;55.20;;;;;;5072975;28;20036;-64
2023/03/11 09:32:15;;;;;;;2.60;1.00;;;6.30;54.60;;;;;;5066356;28;20041;-63
2023/03/11 09:34:41;;;;;;;3.83;1.20;;;6.40;54.20;;;;;;5064042;28;20016;-63
2023/03/11 09:37:07;;;;;;;5.70;1.40;;;6.50;53.40;;;;;;5065892;28;20345;-62
2023/03/11 09:39:33;;;;;;;3.28;1.27;;;6.40;52.80;;;;;;5063324;28;20027;-64
2023/03/11 09:42:42;;;;;;;3.08;1.10;;;6.40;52.90;;;;;;5072457;28;20043;-63
2023/03/11 09:45:17;;;;;;;4.13;1.30;;;6.30;52.80;;;;;;5043021;28;20025;-63
2023/03/11 09:47:55;;;;;;;5.15;1.20;;;6.20;53.10;;;;;;5062321;28;20021;-63
2023/03/11 09:50:36;;;;;;;2.90;1.40;;;6.20;52.90;;;;;;5064645;28;20020;-62
2023/03/11 09:53:42;;;;;;;3.22;1.50;;;6.20;52.80;;;;;;5054356;28;20053;-63
2023/03/11 09:56:16;;;;;;;1.63;1.00;;;6.20;53.40;;;;;;5049429;28;20071;-64
2023/03/11 09:58:49;;;;;;;2.00;1.13;;;6.30;52.30;;;;;;5040931;28;20041;-65
2023/03/11 10:01:32;;;;;;;3.25;0.88;;;6.40;53.20;;;;;;5042038;28;20029;-63
2023/03/11 10:04:06;;;;;;;4.32;1.10;;;6.50;53.80;;;;;;5037665;28;20025;-64
2023/03/11 10:06:32;;;;;;;1.38;0.90;;;6.50;52.10;;;;;;5056119;28;20049;-63
2023/03/11 10:09:35;;;;;;;6.53;1.27;;;6.60;52.50;;;;;;5045802;28;20034;-63
2023/03/11 10:12:31;;;;;;;2.15;0.93;;;6.60;51.70;;;;;;5034522;28;20754;-63
2023/03/11 10:15:26;;;;;;;4.05;0.90;;;6.70;51.80;;;;;;5039989;28;20050;-63
2023/03/11 10:18:17;;;;;;;3.70;1.00;;;6.70;51.50;;;;;;5036340;28;20080;-63
2023/03/11 10:20:54;;;;;;;2.38;0.93;;;6.80;51.80;;;;;;5037032;28;20045;-62
2023/03/11 10:23:50;;;;;;;5.63;1.30;;;6.80;52.00;;;;;;5037606;28;20022;-64
2023/03/11 10:26:28;;;;;;;2.25;1.10;;;6.80;51.40;;;;;;5041245;28;20044;-65
2023/03/11 10:29:17;;;;;;;1.08;0.70;;;6.90;51.30;;;;;;5058995;28;20077;-63
2023/03/11 10:31:53;;;;;;;2.10;0.80;;;6.80;51.20;;;;;;5065092;28;20032;-63
2023/03/11 10:34:47;;;;;;;4.97;0.90;;;6.90;50.50;;;;;;5061837;28;20059;-63
2023/03/11 10:37:28;;;;;;;1.65;1.00;;;7.00;51.40;;;;;;5063673;28;20033;-63
2023/03/11 10:39:56;;;;;;;5.22;1.00;;;7.00;51.30;;;;;;5066464;28;20036;-63
2023/03/11 10:42:27;;;;;;;2.60;1.02;;;7.00;51.50;;;;;;5058235;28;20553;-63
2023/03/11 10:44:53;;;;;;;1.27;0.75;;;7.00;51.30;;;;;;5057931;28;20033;-65
2023/03/11 10:47:24;;;;;;;1.85;0.85;;;7.00;51.30;;;;;;5069619;28;20047;-63
2023/03/11 10:49:51;;;;;;;3.33;0.98;;;7.10;51.10;;;;;;5041937;28;20096;-63
2023/03/11 10:52:18;;;;;;;3.05;1.25;;;7.10;50.90;;;;;;5061989;28;20027;-64
2023/03/11 10:54:46;;;;;;;1.90;0.95;;;7.00;48.40;;;;;;5073067;28;20029;-63
2023/03/11 10:57:27;;;;;;;2.05;1.20;;;7.00;49.40;;;;;;5066956;28;20029;-62
2023/03/11 10:59:54;;;;;;;1.45;1.00;;;6.90;48.10;;;;;;5057975;28;20373;-63
2023/03/11 11:02:25;;;;;;;3.83;1.02;;;6.90;49.60;;;;;;5062872;28;20051;-62
2023/03/11 11:05:25;;;;;;;2.38;1.40;;;6.90;49.70;;;;;;5068583;28;20023;-63
2023/03/11 11:08:14;;;;;;;1.83;0.95;;;6.90;49.20;;;;;;5065817;28;20021;-63
2023/03/11 11:10:51;;;;;;;3.95;1.20;;;6.90;49.80;;;;;;5056427;28;20035;-63
2023/03/11 11:13:19;;;;;;;3.15;1.33;;;6.90;50.10;;;;;;5064754;28;20033;-63
2023/03/11 11:15:53;;;;;;;4.00;1.13;;;6.90;50.60;;;;;;5092589;28;20067;-63
2023/03/11 11:18:26;;;;;;;3.28;1.15;;;7.00;49.70;;;;;;5064314;28;20033;-63
2023/03/11 11:21:03;;;;;;;3.47;1.63;;;7.00;50.40;;;;;;5058206;28;20051;-65
2023/03/11 11:23:41;;;;;;;2.03;1.08;;;7.10;50.50;;;;;;5061603;28;20048;-63
2023/03/11 11:26:23;;;;;;;1.98;1.13;;;7.20;51.00;;;;;;5062722;28;20021;-63
2023/03/11 11:29:11;;;;;;;2.53;1.10;;;7.40;50.90;;;;;;5067778;28;20036;-62
2023/03/11 11:31:42;;;;;;;6.65;1.20;;;7.50;50.60;;;;;;5053184;28;20092;-63
2023/03/11 11:34:23;;;;;;;2.53;1.00;;;7.70;50.90;;;;;;5047406;28;20045;-62
2023/03/11 11:36:50;;;;;;;2.95;1.05;;;7.90;49.90;;;;;;5052768;28;20025;-62
2023/03/11 11:39:20;;;;;;;5.22;1.45;;;8.10;50.40;;;;;;5058615;28;20064;-62
2023/03/11 11:41:49;;;;;;;4.72;1.98;;;8.10;49.70;;;;;;4966046;28;20040;-63
2023/03/11 11:44:20;;;;;;;4.38;2.05;;;8.20;50.00;;;;;;5058856;28;20021;-64
2023/03/11 11:46:53;;;;;;;6.57;2.00;;;8.20;50.10;;;;;;5059830;28;20024;-64
2023/03/11 11:49:30;;;;;;;3.05;1.20;;;8.20;48.10;;;;;;5059918;28;20045;-63
2023/03/11 11:52:13;;;;;;;2.00;1.20;;;8.20;48.50;;;;;;5058653;28;20062;-62
2023/03/11 11:54:38;;;;;;;3.70;1.25;;;8.20;48.50;;;;;;5054856;28;20036;-63
2023/03/11 11:57:16;;;;;;;4.18;0.90;;;8.20;48.80;;;;;;5063480;28;20017;-63
2023/03/11 11:59:43;;;;;;;2.95;1.05;;;8.10;47.90;;;;;;5066129;28;20036;-64
2023/03/11 12:02:27;;;;;;;3.25;1.15;;;8.00;48.00;;;;;;5059237;28;20143;-66
2023/03/11 12:05:23;;;;;;;1.83;0.90;;;8.00;47.50;;;;;;5051332;28;20630;-64
2023/03/11 12:08:13;;;;;;;3.75;0.93;;;8.00;48.80;;;;;;5068755;28;20055;-63
2023/03/11 12:10:53;;;;;;;5.57;1.38;;;8.00;48.20;;;;;;5062953;28;20032;-63
2023/03/11 12:13:29;;;;;;;2.58;1.10;;;8.00;47.80;;;;;;5065301;28;20032;-63
2023/03/11 12:16:09;;;;;;;3.03;1.00;;;7.90;47.90;;;;;;5059361;28;20116;-63
2023/03/11 12:18:37;;;;;;;5.68;1.25;;;7.90;47.90;;;;;;5053895;28;20613;-61
2023/03/11 12:21:31;;;;;;;5.93;1.10;;;7.80;48.10;;;;;;5054416;28;20033;-64
2023/03/11 12:24:25;;;;;;;2.53;1.00;;;7.80;48.30;;;;;;5054957;28;20035;-63
2023/03/11 12:26:53;;;;;;;1.70;0.82;;;7.90;48.70;;;;;;5079393;28;20017;-64
2023/03/11 12:29:30;;;;;;;3.10;1.13;;;8.00;49.40;;;;;;5062449;28;20053;-63
2023/03/11 12:31:58;;;;;;;4.80;1.20;;;8.00;49.10;;;;;;5063405;28;20029;-62
2023/03/11 12:34:24;;;;;;;2.05;0.88;;;8.20;49.20;;;;;;5062202;28;20610;-64
2023/03/11 12:36:51;;;;;;;3.63;1.40;;;8.30;49.90;;;;;;5074459;28;20029;-63
2023/03/11 12:39:28;;;;;;;2.78;1.10;;;8.40;47.80;;;;;;5076348;28;20020;-64
2023/03/11 12:42:13;;;;;;;5.65;1.38;;;8.50;47.30;;;;;;5059480;28;20020;-64
2023/03/11 12:44:39;;;;;;;3.92;1.40;;;8.60;46.60;;;;;;5065738;28;21707;-64
2023/03/11 12:47:21;;;;;;;3.38;1.00;;;8.50;47.60;;;;;;5066397;28;20089;-63
2023/03/11 12:49:53;;;;;;;1.10;1.00;;;8.50;47.20;;;;;;5062897;28;20096;-63
2023/03/11 12:52:25;;;;;;;1.55;1.20;;;8.40;47.30;;;;;;5059908;28;20025;-63
2023/03/11 12:54:54;;;;;;;2.15;0.88;;;8.40;47.40;;;;;;5072304;28;20021;-64
2023/03/11 12:57:19;;;;;;;2.65;0.90;;;8.40;47.20;;;;;;5064277;28;20135;-64
2023/03/11 13:00:17;;;;;;;4.10;1.40;;;8.50;47.70;;;;;;5072285;28;20118;-62
2023/03/11 13:03:04;;;;;;;2.85;1.42;;;8.50;45.70;;;;;;5067969;28;20484;-64
2023/03/11 13:06:08;;;;;;;2.85;1.05;;;8.60;46.20;;;;;;5056156;28;20043;-63
2023/03/11 13:08:43;;;;;;;6.85;1.60;;;8.50;46.60;;;;;;5069583;28;20029;-64
2023/03/11 13:11:47;;;;;;;4.82;1.80;;;8.60;47.70;;;;;;5063277;28;20037;-64